Time;durP1;ratioP1;P1;durP2;ratioP2;P2;SDS_P1;SDS_P2;PMS_P1;PMS_P2;Temp;Humidity;BMP_temperature;BMP_pressure;BME280_temperature;BME280_humidity;BME280_pressure;Samples;Min_cycle;Max_cycle;Signal;HPM_P1;HPM_P2
2024/01/05 00:01:24;;;;;;;15.48;9.07;;;;;;;;;;6287777;28;20032;-73
2024/01/05 00:04:26;;;;;;;16.63;10.32;;;;;;;;;;6289694;28;20055;-73
2024/01/05 00:07:29;;;;;;;18.98;10.85;;;;;;;;;;6275239;28;20094;-73
2024/01/05 00:10:31;;;;;;;16.27;10.88;;;;;;;;;;6295386;28;20044;-76
2024/01/05 00:13:34;;;;;;;19.65;12.05;;;;;;;;;;6291992;28;20123;-75
2024/01/05 00:16:38;;;;;;;16.35;10.18;;;;;;;;;;6294807;28;20063;-74
2024/01/05 00:19:42;;;;;;;18.90;10.70;;;;;;;;;;6279160;28;20134;-75
2024/01/05 00:22:44;;;;;;;17.98;11.93;;;;;;;;;;6290192;28;20060;-75
2024/01/05 00:25:46;;;;;;;20.02;11.82;;;;;;;;;;6292872;28;20040;-75
2024/01/05 00:28:53;;;;;;;23.58;12.85;;;;;;;;;;6294613;28;20062;-74
2024/01/05 00:31:55;;;;;;;28.30;14.77;;;;;;;;;;6240361;28;20040;-75
2024/01/05 00:34:57;;;;;;;22.90;13.05;;;;;;;;;;6260695;28;20170;-75
2024/01/05 00:37:59;;;;;;;22.27;11.88;;;;;;;;;;6279297;28;20052;-75
2024/01/05 00:41:03;;;;;;;19.02;11.00;;;;;;;;;;6305849;28;20050;-75
2024/01/05 00:44:05;;;;;;;18.80;11.63;;;;;;;;;;6268897;28;20043;-75
2024/01/05 00:47:08;;;;;;;19.08;11.57;;;;;;;;;;6279413;28;20052;-75
2024/01/05 00:50:10;;;;;;;28.95;17.60;;;;;;;;;;6273759;28;20680;-75
2024/01/05 00:53:12;;;;;;;21.55;11.95;;;;;;;;;;6295677;28;20174;-75
2024/01/05 00:56:15;;;;;;;23.25;12.60;;;;;;;;;;6256951;28;20040;-75
2024/01/05 00:59:20;;;;;;;28.75;17.92;;;;;;;;;;6303191;28;20198;-75
2024/01/05 01:02:22;;;;;;;24.02;14.93;;;;;;;;;;6289676;28;20080;-75
2024/01/05 01:05:24;;;;;;;28.35;15.13;;;;;;;;;;6285794;28;20059;-75
2024/01/05 01:08:26;;;;;;;30.98;15.65;;;;;;;;;;6297751;28;20053;-75
2024/01/05 01:11:28;;;;;;;31.63;16.15;;;;;;;;;;6295514;28;20068;-73
2024/01/05 01:14:31;;;;;;;30.10;14.93;;;;;;;;;;6267749;28;20047;-75
2024/01/05 01:17:33;;;;;;;31.25;19.52;;;;;;;;;;6250620;28;20060;-75
2024/01/05 01:20:36;;;;;;;31.92;17.13;;;;;;;;;;6270261;28;20041;-75
2024/01/05 01:23:38;;;;;;;28.77;16.75;;;;;;;;;;6275233;28;20104;-75
2024/01/05 01:26:40;;;;;;;31.17;16.80;;;;;;;;;;6296059;28;20686;-75
2024/01/05 01:29:43;;;;;;;25.58;14.00;;;;;;;;;;6300115;28;20698;-75
2024/01/05 01:32:45;;;;;;;23.17;13.57;;;;;;;;;;6272111;28;20621;-75
2024/01/05 01:35:47;;;;;;;18.85;10.98;;;;;;;;;;6267537;28;20106;-75
2024/01/05 01:38:49;;;;;;;17.55;10.80;;;;;;;;;;6280675;28;20040;-75
2024/01/05 01:41:52;;;;;;;19.02;10.02;;;;;;;;;;6277970;28;20046;-75
2024/01/05 01:44:55;;;;;;;17.08;10.82;;;;;;;;;;6286110;28;20052;-75
2024/01/05 01:47:57;;;;;;;18.50;10.65;;;;;;;;;;6296758;28;20055;-75
2024/01/05 01:50:59;;;;;;;21.15;12.15;;;;;;;;;;6291858;28;20045;-75
2024/01/05 01:54:06;;;;;;;19.45;11.85;;;;;;;;;;6273169;28;20178;-75
2024/01/05 01:57:09;;;;;;;22.02;12.07;;;;;;;;;;6276007;28;20117;-75
2024/01/05 02:00:13;;;;;;;19.70;11.43;;;;;;;;;;6274898;28;20381;-75
2024/01/05 02:03:15;;;;;;;20.20;11.27;;;;;;;;;;6255797;28;20048;-75
2024/01/05 02:06:19;;;;;;;24.70;11.23;;;;;;;;;;6274702;28;20051;-75
2024/01/05 02:09:22;;;;;;;18.85;9.25;;;;;;;;;;6299396;28;20059;-75
2024/01/05 02:12:24;;;;;;;13.63;7.95;;;;;;;;;;6272942;28;20832;-75
2024/01/05 02:15:26;;;;;;;14.95;8.60;;;;;;;;;;6280284;28;20052;-75
2024/01/05 02:18:52;;;;;;;17.10;9.82;;;;;;;;;;6283256;28;20369;-75
2024/01/05 02:21:56;;;;;;;15.73;9.45;;;;;;;;;;6275863;28;20040;-75
2024/01/05 02:24:59;;;;;;;12.70;9.35;;;;;;;;;;6306366;28;20048;-75
2024/01/05 02:28:01;;;;;;;17.45;8.63;;;;;;;;;;6276203;28;20052;-75
2024/01/05 02:31:03;;;;;;;16.13;8.77;;;;;;;;;;6296716;28;20067;-75
2024/01/05 02:34:05;;;;;;;16.05;9.38;;;;;;;;;;6283523;28;20751;-76
2024/01/05 02:37:08;;;;;;;15.55;9.70;;;;;;;;;;6292121;28;20047;-75
2024/01/05 02:40:12;;;;;;;16.23;7.53;;;;;;;;;;6294054;28;20075;-75
2024/01/05 02:43:14;;;;;;;15.52;8.50;;;;;;;;;;6267697;28;20037;-76
2024/01/05 02:46:16;;;;;;;16.42;9.90;;;;;;;;;;6262642;28;20086;-75
2024/01/05 02:49:18;;;;;;;19.98;9.15;;;;;;;;;;6289903;28;20047;-75
2024/01/05 02:52:20;;;;;;;16.70;9.75;;;;;;;;;;6273239;28;20048;-75
2024/01/05 02:55:23;;;;;;;14.55;8.80;;;;;;;;;;6296619;28;20763;-75
2024/01/05 02:58:25;;;;;;;15.57;9.65;;;;;;;;;;6294420;28;20044;-76
2024/01/05 03:01:27;;;;;;;18.15;10.35;;;;;;;;;;6302564;28;20546;-76
2024/01/05 03:04:29;;;;;;;13.15;8.63;;;;;;;;;;6267003;28;20053;-76
2024/01/05 03:07:31;;;;;;;13.02;7.93;;;;;;;;;;6273875;28;20055;-76
2024/01/05 03:10:33;;;;;;;13.00;7.53;;;;;;;;;;6244429;28;20045;-76
2024/01/05 03:13:36;;;;;;;12.52;8.40;;;;;;;;;;6287369;28;20525;-76
2024/01/05 03:16:38;;;;;;;14.65;9.02;;;;;;;;;;6275551;28;20529;-76
2024/01/05 03:19:41;;;;;;;11.35;6.32;;;;;;;;;;6291239;28;20132;-76
2024/01/05 03:22:43;;;;;;;12.23;6.97;;;;;;;;;;6259619;28;20044;-75
2024/01/05 03:25:46;;;;;;;11.77;7.80;;;;;;;;;;6273792;28;20045;-76
2024/01/05 03:28:48;;;;;;;12.95;7.70;;;;;;;;;;6281600;28;20511;-76
2024/01/05 03:31:50;;;;;;;13.73;7.82;;;;;;;;;;6258141;28;20748;-75
2024/01/05 03:34:53;;;;;;;14.00;8.65;;;;;;;;;;6284136;28;20071;-75
2024/01/05 03:37:57;;;;;;;19.67;11.40;;;;;;;;;;6301705;28;20047;-75
2024/01/05 03:40:59;;;;;;;12.88;9.02;;;;;;;;;;6235218;28;20047;-75
2024/01/05 03:44:01;;;;;;;15.13;9.00;;;;;;;;;;6268074;28;20041;-76
2024/01/05 03:47:04;;;;;;;15.98;8.77;;;;;;;;;;6290778;28;20046;-76
2024/01/05 03:50:08;;;;;;;15.52;8.05;;;;;;;;;;6292801;28;20608;-76
2024/01/05 03:53:11;;;;;;;15.02;9.05;;;;;;;;;;6279057;28;20529;-75
2024/01/05 03:56:13;;;;;;;13.15;6.93;;;;;;;;;;6273298;28;20167;-76
2024/01/05 03:59:17;;;;;;;11.27;7.68;;;;;;;;;;6253466;28;20107;-76
2024/01/05 04:02:19;;;;;;;15.35;7.97;;;;;;;;;;6286911;28;20032;-76
2024/01/05 04:05:21;;;;;;;14.95;7.88;;;;;;;;;;6276521;28;20134;-76
2024/01/05 04:08:24;;;;;;;13.57;7.78;;;;;;;;;;6290598;28;20052;-76
2024/01/05 04:11:30;;;;;;;13.57;7.50;;;;;;;;;;6284174;28;20045;-77
2024/01/05 04:14:34;;;;;;;15.75;8.50;;;;;;;;;;6287263;28;20151;-77
2024/01/05 04:17:36;;;;;;;13.95;8.23;;;;;;;;;;6251216;28;20052;-77
2024/01/05 04:20:39;;;;;;;11.13;8.05;;;;;;;;;;6272131;28;20661;-76
2024/01/05 04:23:41;;;;;;;14.25;7.97;;;;;;;;;;6296661;28;20135;-76
2024/01/05 04:26:43;;;;;;;13.25;7.82;;;;;;;;;;6269774;28;20096;-76
2024/01/05 04:29:47;;;;;;;18.23;10.57;;;;;;;;;;6293389;28;20044;-78
2024/01/05 04:32:49;;;;;;;16.30;9.65;;;;;;;;;;6298896;28;20032;-76
2024/01/05 04:35:51;;;;;;;13.45;7.85;;;;;;;;;;6273086;28;20054;-74
2024/01/05 04:38:53;;;;;;;11.68;7.68;;;;;;;;;;6280055;28;20044;-76
2024/01/05 04:41:55;;;;;;;17.88;9.18;;;;;;;;;;6290435;28;20045;-76
2024/01/05 04:44:58;;;;;;;13.18;8.80;;;;;;;;;;6295562;28;20039;-76
2024/01/05 04:48:01;;;;;;;11.95;7.50;;;;;;;;;;6272127;28;20040;-76
2024/01/05 04:51:03;;;;;;;14.48;7.82;;;;;;;;;;6271659;28;20095;-75
2024/01/05 04:54:05;;;;;;;16.00;8.27;;;;;;;;;;6259787;28;20048;-76
2024/01/05 04:57:08;;;;;;;15.43;9.57;;;;;;;;;;6255727;28;20476;-77
2024/01/05 05:00:11;;;;;;;13.30;7.43;;;;;;;;;;6254252;28;20036;-77
2024/01/05 05:03:16;;;;;;;13.27;7.88;;;;;;;;;;6271900;28;20638;-76
2024/01/05 05:06:18;;;;;;;20.75;11.27;;;;;;;;;;6304226;28;20848;-76
2024/01/05 05:09:20;;;;;;;20.42;12.05;;;;;;;;;;6271589;28;20055;-76
2024/01/05 05:12:23;;;;;;;22.85;13.88;;;;;;;;;;6278775;28;20041;-76
2024/01/05 05:15:25;;;;;;;17.05;11.80;;;;;;;;;;6290186;28;20049;-77
2024/01/05 05:18:27;;;;;;;19.05;10.32;;;;;;;;;;6304355;28;20052;-77
2024/01/05 05:21:31;;;;;;;15.88;8.75;;;;;;;;;;6292567;28;20052;-78
2024/01/05 05:24:33;;;;;;;12.68;8.68;;;;;;;;;;6279055;28;20048;-77
2024/01/05 05:27:35;;;;;;;17.10;9.48;;;;;;;;;;6276596;28;20094;-77
2024/01/05 05:30:37;;;;;;;14.70;8.57;;;;;;;;;;6271442;28;20066;-79
2024/01/05 05:33:39;;;;;;;17.23;9.55;;;;;;;;;;6271073;28;20171;-77
2024/01/05 05:36:42;;;;;;;14.82;8.32;;;;;;;;;;6262933;28;20049;-77
2024/01/05 05:39:44;;;;;;;15.05;8.55;;;;;;;;;;6288858;28;20824;-77
2024/01/05 05:42:46;;;;;;;17.52;10.95;;;;;;;;;;6248513;28;20045;-75
2024/01/05 05:45:49;;;;;;;18.70;11.23;;;;;;;;;;6266639;28;20218;-75
2024/01/05 05:48:52;;;;;;;17.58;8.90;;;;;;;;;;6269021;28;20052;-75
2024/01/05 05:51:56;;;;;;;14.45;7.60;;;;;;;;;;6281946;28;20482;-75
2024/01/05 05:54:58;;;;;;;14.88;7.68;;;;;;;;;;6278982;28;20044;-75
2024/01/05 05:58:00;;;;;;;11.18;6.63;;;;;;;;;;6291474;28;20048;-76
2024/01/05 06:01:06;;;;;;;11.85;6.65;;;;;;;;;;6293681;28;20156;-76
2024/01/05 06:04:08;;;;;;;11.60;7.18;;;;;;;;;;6276631;28;20045;-76
2024/01/05 06:07:10;;;;;;;10.57;6.35;;;;;;;;;;6286596;28;20071;-76
2024/01/05 06:10:12;;;;;;;14.77;7.72;;;;;;;;;;6286721;28;20499;-76
2024/01/05 06:13:15;;;;;;;12.02;7.30;;;;;;;;;;6287583;28;20075;-76
2024/01/05 06:16:17;;;;;;;11.52;5.95;;;;;;;;;;6282631;28;20051;-76
2024/01/05 06:19:20;;;;;;;9.68;5.43;;;;;;;;;;6296127;28;20049;-76
2024/01/05 06:22:22;;;;;;;8.98;5.70;;;;;;;;;;6293735;28;20067;-76
2024/01/05 06:25:25;;;;;;;6.95;4.55;;;;;;;;;;6270486;28;20039;-76
2024/01/05 06:28:27;;;;;;;8.75;4.43;;;;;;;;;;6271081;28;20154;-76
2024/01/05 06:31:29;;;;;;;10.23;6.30;;;;;;;;;;6278586;28;20550;-76
2024/01/05 06:34:33;;;;;;;7.65;5.05;;;;;;;;;;6269643;28;20044;-76
2024/01/05 06:37:35;;;;;;;9.85;6.18;;;;;;;;;;6290349;28;20060;-76
2024/01/05 06:40:38;;;;;;;15.00;11.55;;;;;;;;;;6275106;28;20047;-76
2024/01/05 06:43:40;;;;;;;12.70;8.32;;;;;;;;;;6269210;28;20052;-76
2024/01/05 06:46:42;;;;;;;19.90;12.70;;;;;;;;;;6277516;28;20557;-76
2024/01/05 06:49:44;;;;;;;25.40;15.63;;;;;;;;;;6298228;28;20044;-76
2024/01/05 06:52:47;;;;;;;20.98;12.27;;;;;;;;;;6304768;28;20046;-76
2024/01/05 06:55:49;;;;;;;19.38;11.57;;;;;;;;;;6294548;28;20039;-76
2024/01/05 06:58:51;;;;;;;19.63;13.18;;;;;;;;;;6280641;28;20056;-75
2024/01/05 07:01:54;;;;;;;43.28;20.15;;;;;;;;;;6235109;28;20055;-76
2024/01/05 07:04:57;;;;;;;24.63;14.52;;;;;;;;;;6268410;28;20037;-75
2024/01/05 07:08:00;;;;;;;19.40;12.15;;;;;;;;;;6295478;28;20131;-75
2024/01/05 07:11:04;;;;;;;29.40;18.08;;;;;;;;;;6299769;28;20056;-75
2024/01/05 07:14:07;;;;;;;18.85;11.23;;;;;;;;;;6271794;28;20040;-75
2024/01/05 07:17:09;;;;;;;20.50;13.95;;;;;;;;;;6281610;28;20059;-75
2024/01/05 07:20:14;;;;;;;24.40;16.00;;;;;;;;;;6264413;28;20051;-75
2024/01/05 07:23:16;;;;;;;27.48;14.98;;;;;;;;;;6275069;28;20045;-75
2024/01/05 07:26:21;;;;;;;18.13;11.45;;;;;;;;;;6278191;28;20633;-75
2024/01/05 07:29:23;;;;;;;16.45;11.25;;;;;;;;;;6266850;28;20056;-74
2024/01/05 07:32:26;;;;;;;21.02;11.48;;;;;;;;;;6277041;28;20048;-75
2024/01/05 07:35:28;;;;;;;20.33;12.43;;;;;;;;;;6264922;28;20128;-75
2024/01/05 07:38:34;;;;;;;19.02;11.63;;;;;;;;;;6297798;28;20056;-75
2024/01/05 07:41:38;;;;;;;29.92;15.75;;;;;;;;;;6265613;28;20541;-76
2024/01/05 07:44:41;;;;;;;32.10;18.60;;;;;;;;;;6290356;28;20426;-75
2024/01/05 07:47:43;;;;;;;34.38;19.85;;;;;;;;;;6268361;28;20091;-74
2024/01/05 07:50:47;;;;;;;34.40;18.48;;;;;;;;;;6269779;28;20085;-75
2024/01/05 07:53:50;;;;;;;35.47;19.00;;;;;;;;;;6308104;28;20040;-75
2024/01/05 07:56:53;;;;;;;30.35;20.67;;;;;;;;;;6307973;28;20048;-74
2024/01/05 07:59:55;;;;;;;20.70;11.35;;;;;;;;;;6252357;28;20507;-74
2024/01/05 08:03:03;;;;;;;23.13;13.07;;;;;;;;;;6292879;28;20048;-75
2024/01/05 08:06:06;;;;;;;15.00;9.52;;;;;;;;;;6268304;28;20527;-75
2024/01/05 08:09:08;;;;;;;13.20;9.35;;;;;;;;;;6284643;28;20044;-74
2024/01/05 08:12:10;;;;;;;21.50;11.95;;;;;;;;;;6286876;28;20045;-74
2024/01/05 08:15:15;;;;;;;31.40;20.70;;;;;;;;;;6294151;28;20577;-74
2024/01/05 08:18:33;;;;;;;27.63;16.98;;;;;;;;;;6254710;28;20044;-75
2024/01/05 08:21:35;;;;;;;27.08;18.33;;;;;;;;;;6287289;28;20039;-75
2024/01/05 08:24:39;;;;;;;31.42;18.10;;;;;;;;;;6267236;28;20052;-75
2024/01/05 08:27:42;;;;;;;20.65;12.93;;;;;;;;;;6285584;28;20032;-75
2024/01/05 08:30:44;;;;;;;21.13;13.32;;;;;;;;;;6272060;28;20041;-75
2024/01/05 08:33:47;;;;;;;18.90;9.27;;;;;;;;;;6267855;28;20040;-75
2024/01/05 08:36:49;;;;;;;14.10;8.05;;;;;;;;;;6299089;28;20849;-75
2024/01/05 08:39:52;;;;;;;13.57;8.68;;;;;;;;;;6273000;28;20044;-75
2024/01/05 08:42:57;;;;;;;16.38;11.23;;;;;;;;;;6294780;28;20040;-75
2024/01/05 08:46:00;;;;;;;16.40;10.48;;;;;;;;;;6297739;28;20174;-74
2024/01/05 08:49:04;;;;;;;16.85;11.05;;;;;;;;;;6293103;28;20040;-75
2024/01/05 08:52:06;;;;;;;49.10;21.15;;;;;;;;;;6276043;28;20117;-74
2024/01/05 08:55:09;;;;;;;10.88;5.53;;;;;;;;;;6253456;28;20864;-74
2024/01/05 08:58:11;;;;;;;13.75;5.70;;;;;;;;;;6286127;28;20484;-74
2024/01/05 09:01:13;;;;;;;11.77;7.13;;;;;;;;;;6252917;28;20511;-74
2024/01/05 09:04:16;;;;;;;13.35;8.20;;;;;;;;;;6237862;28;20587;-74
2024/01/05 09:07:19;;;;;;;14.32;6.82;;;;;;;;;;6268074;28;20037;-74
2024/01/05 09:10:22;;;;;;;33.90;14.07;;;;;;;;;;6299757;28;20059;-74
2024/01/05 09:13:24;;;;;;;16.00;10.63;;;;;;;;;;6273010;28;20585;-74
2024/01/05 09:16:26;;;;;;;10.18;6.65;;;;;;;;;;6283011;28;20049;-74
2024/01/05 09:19:29;;;;;;;12.27;8.25;;;;;;;;;;6270803;28;20486;-75
2024/01/05 09:22:31;;;;;;;11.60;6.85;;;;;;;;;;6280854;28;20074;-74
2024/01/05 09:25:33;;;;;;;12.48;6.40;;;;;;;;;;6278740;28;20052;-74
2024/01/05 09:28:41;;;;;;;11.25;6.82;;;;;;;;;;6286958;28;20103;-74
2024/01/05 09:31:46;;;;;;;14.05;7.97;;;;;;;;;;6257103;28;20618;-75
2024/01/05 09:34:48;;;;;;;17.15;9.35;;;;;;;;;;6284054;28;20040;-75
2024/01/05 09:37:51;;;;;;;11.85;8.35;;;;;;;;;;6296018;28;20455;-75
2024/01/05 09:41:13;;;;;;;10.55;7.10;;;;;;;;;;6289437;28;20107;-75
2024/01/05 09:44:35;;;;;;;13.60;7.10;;;;;;;;;;6255279;28;20055;-74
2024/01/05 09:47:57;;;;;;;11.13;6.07;;;;;;;;;;6274798;28;20856;-74
2024/01/05 09:51:20;;;;;;;11.13;7.13;;;;;;;;;;6257337;28;20052;-74
2024/01/05 09:54:42;;;;;;;9.38;6.85;;;;;;;;;;6275324;28;20541;-74
2024/01/05 09:58:05;;;;;;;7.35;4.60;;;;;;;;;;6271688;28;20059;-74
2024/01/05 10:01:28;;;;;;;7.78;4.30;;;;;;;;;;6266996;28;20062;-74
2024/01/05 10:04:50;;;;;;;8.27;3.50;;;;;;;;;;6258542;28;20044;-74
2024/01/05 10:08:14;;;;;;;6.22;3.90;;;;;;;;;;6250098;28;20052;-74
2024/01/05 10:11:46;;;;;;;9.10;5.10;;;;;;;;;;6274314;28;20057;-75
2024/01/05 10:15:12;;;;;;;12.00;3.90;;;;;;;;;;6261581;28;20044;-74
2024/01/05 10:18:35;;;;;;;6.13;3.97;;;;;;;;;;6296861;28;20113;-74
2024/01/05 10:22:08;;;;;;;11.65;4.32;;;;;;;;;;6278114;28;20136;-74
2024/01/05 10:25:35;;;;;;;9.82;5.15;;;;;;;;;;6261087;28;20416;-74
2024/01/05 10:29:11;;;;;;;9.68;5.53;;;;;;;;;;6252593;28;20079;-74
2024/01/05 10:32:34;;;;;;;8.90;4.53;;;;;;;;;;6264531;28;20109;-75
2024/01/05 10:36:04;;;;;;;10.25;5.70;;;;;;;;;;6275022;28;20049;-75
2024/01/05 10:39:26;;;;;;;10.27;5.47;;;;;;;;;;6254728;28;20051;-75
2024/01/05 10:42:49;;;;;;;13.05;6.00;;;;;;;;;;6271178;28;20102;-75
2024/01/05 10:46:14;;;;;;;15.35;7.70;;;;;;;;;;6275950;28;20040;-75
2024/01/05 10:49:37;;;;;;;16.52;10.15;;;;;;;;;;6305627;28;20538;-74
2024/01/05 10:53:04;;;;;;;10.95;6.32;;;;;;;;;;6262632;28;20523;-74
2024/01/05 10:56:29;;;;;;;10.73;6.00;;;;;;;;;;6253287;28;20171;-74
2024/01/05 10:59:55;;;;;;;8.35;4.30;;;;;;;;;;6297512;28;20044;-74
2024/01/05 11:03:19;;;;;;;11.32;6.32;;;;;;;;;;6297778;28;20135;-74
2024/01/05 11:06:41;;;;;;;11.10;5.03;;;;;;;;;;6278521;28;20056;-74
2024/01/05 11:10:16;;;;;;;12.35;7.50;;;;;;;;;;6278960;28;20295;-75
2024/01/05 11:13:47;;;;;;;13.52;5.40;;;;;;;;;;6255223;28;20143;-75
2024/01/05 11:17:35;;;;;;;9.38;5.15;;;;;;;;;;6297791;28;20052;-76
2024/01/05 11:21:42;;;;;;;8.77;4.32;;;;;;;;;;6267167;28;20067;-76
2024/01/05 11:25:06;;;;;;;7.82;5.05;;;;;;;;;;6210034;28;20046;-76
2024/01/05 11:28:38;;;;;;;9.50;5.43;;;;;;;;;;6212512;28;20052;-76
2024/01/05 11:32:00;;;;;;;7.80;4.82;;;;;;;;;;6283266;28;20044;-76
2024/01/05 11:35:39;;;;;;;12.20;5.70;;;;;;;;;;6271708;28;20056;-76
2024/01/05 11:39:01;;;;;;;10.18;5.03;;;;;;;;;;6254892;28;20053;-75
2024/01/05 11:42:27;;;;;;;14.05;6.75;;;;;;;;;;6300505;28;20736;-76
2024/01/05 11:45:50;;;;;;;16.52;5.72;;;;;;;;;;6262022;28;20055;-76
2024/01/05 11:49:34;;;;;;;8.65;5.53;;;;;;;;;;6270141;28;20040;-76
2024/01/05 11:53:10;;;;;;;6.90;3.47;;;;;;;;;;6260133;28;20705;-75
2024/01/05 11:56:33;;;;;;;13.32;6.45;;;;;;;;;;6277449;28;20044;-76
2024/01/05 11:59:55;;;;;;;8.90;3.97;;;;;;;;;;6296666;28;20535;-75
2024/01/05 12:03:20;;;;;;;18.13;7.15;;;;;;;;;;6279198;28;20063;-75
2024/01/05 12:06:50;;;;;;;10.55;6.13;;;;;;;;;;6286992;28;20048;-75
2024/01/05 12:10:13;;;;;;;8.80;5.65;;;;;;;;;;6277274;28;20048;-75
2024/01/05 12:13:36;;;;;;;15.45;7.40;;;;;;;;;;6280720;28;20052;-75
2024/01/05 12:17:12;;;;;;;10.95;6.70;;;;;;;;;;6272936;28;20051;-75
2024/01/05 12:20:35;;;;;;;12.38;7.40;;;;;;;;;;6272768;28;20474;-76
2024/01/05 12:24:01;;;;;;;13.23;6.43;;;;;;;;;;6278608;28;20044;-75
2024/01/05 12:27:23;;;;;;;11.90;6.90;;;;;;;;;;6273715;28;20045;-75
2024/01/05 12:30:46;;;;;;;21.73;10.48;;;;;;;;;;6258941;28;20045;-75
2024/01/05 12:34:09;;;;;;;14.32;7.95;;;;;;;;;;6257951;28;20044;-75
2024/01/05 12:37:32;;;;;;;13.52;7.25;;;;;;;;;;6275533;28;20190;-75
2024/01/05 12:41:14;;;;;;;28.73;15.68;;;;;;;;;;6253417;28;20058;-75
2024/01/05 12:44:42;;;;;;;12.93;8.13;;;;;;;;;;6255529;28;20064;-73
2024/01/05 12:48:10;;;;;;;18.15;9.85;;;;;;;;;;6276366;28;20653;-74
2024/01/05 12:51:32;;;;;;;15.18;8.88;;;;;;;;;;6288192;28;20051;-74
2024/01/05 12:54:54;;;;;;;16.65;7.95;;;;;;;;;;6268030;28;20778;-74
2024/01/05 12:58:17;;;;;;;15.73;11.75;;;;;;;;;;6258242;28;20040;-74
2024/01/05 13:01:39;;;;;;;15.70;10.27;;;;;;;;;;6281735;28;20067;-75
2024/01/05 13:05:01;;;;;;;13.80;6.47;;;;;;;;;;6268994;28;20052;-75
2024/01/05 13:08:23;;;;;;;11.52;7.22;;;;;;;;;;6263207;28;20055;-75
2024/01/05 13:11:55;;;;;;;14.45;7.85;;;;;;;;;;6265197;28;20083;-75
2024/01/05 13:15:17;;;;;;;13.80;8.23;;;;;;;;;;6271952;28;20045;-75
2024/01/05 13:18:40;;;;;;;21.35;8.00;;;;;;;;;;6252913;28;20055;-74
2024/01/05 13:22:04;;;;;;;9.98;6.68;;;;;;;;;;6269741;28;20056;-74
2024/01/05 13:25:26;;;;;;;17.13;10.63;;;;;;;;;;6269305;28;20052;-75
2024/01/05 13:28:48;;;;;;;17.40;8.57;;;;;;;;;;6276423;28;20600;-74
2024/01/05 13:32:10;;;;;;;14.95;7.50;;;;;;;;;;6272468;28;20048;-75
2024/01/05 13:35:33;;;;;;;13.35;6.15;;;;;;;;;;6280960;28;20052;-75
2024/01/05 13:38:55;;;;;;;11.85;5.97;;;;;;;;;;6269121;28;20540;-75
2024/01/05 13:42:17;;;;;;;13.15;7.57;;;;;;;;;;6278116;28;20147;-74
2024/01/05 13:45:39;;;;;;;12.52;6.22;;;;;;;;;;6282194;28;20109;-74
2024/01/05 13:49:01;;;;;;;14.35;7.38;;;;;;;;;;6257514;28;20131;-74
2024/01/05 13:52:23;;;;;;;9.38;5.57;;;;;;;;;;6283459;28;20060;-74
2024/01/05 13:55:46;;;;;;;10.23;6.13;;;;;;;;;;6275920;28;20045;-75
2024/01/05 13:59:08;;;;;;;13.63;7.38;;;;;;;;;;6270400;28;20723;-74
2024/01/05 14:02:30;;;;;;;17.55;11.38;;;;;;;;;;6289520;28;20047;-74
2024/01/05 14:05:54;;;;;;;12.13;7.65;;;;;;;;;;6278763;28;20067;-74
2024/01/05 14:09:16;;;;;;;14.25;8.23;;;;;;;;;;6288131;28;20037;-73
2024/01/05 14:12:38;;;;;;;14.13;8.18;;;;;;;;;;6282192;28;20051;-73
2024/01/05 14:16:00;;;;;;;13.75;9.52;;;;;;;;;;6283401;28;20036;-76
2024/01/05 14:19:22;;;;;;;16.08;9.73;;;;;;;;;;6283814;28;20055;-76
2024/01/05 14:22:46;;;;;;;19.02;10.50;;;;;;;;;;6281213;28;20545;-75
2024/01/05 14:26:10;;;;;;;18.38;11.20;;;;;;;;;;6275443;28;20057;-75
2024/01/05 14:29:32;;;;;;;29.33;15.27;;;;;;;;;;6276711;28;20057;-75
2024/01/05 14:32:54;;;;;;;33.50;19.35;;;;;;;;;;6278502;28;20044;-74
2024/01/05 14:36:16;;;;;;;19.58;15.20;;;;;;;;;;6261473;28;20139;-75
2024/01/05 14:39:38;;;;;;;18.35;12.80;;;;;;;;;;6258461;28;20052;-74
2024/01/05 14:43:00;;;;;;;29.65;19.60;;;;;;;;;;6263497;28;20039;-73
2024/01/05 14:46:22;;;;;;;33.85;22.70;;;;;;;;;;6278035;28;20052;-74
2024/01/05 14:49:45;;;;;;;35.45;21.45;;;;;;;;;;6276179;28;20067;-74
2024/01/05 14:53:07;;;;;;;65.95;34.40;;;;;;;;;;6270709;28;20385;-75
2024/01/05 14:56:33;;;;;;;58.95;33.60;;;;;;;;;;6267791;28;20172;-74
2024/01/05 14:59:55;;;;;;;57.72;32.20;;;;;;;;;;6284365;28;20190;-73
2024/01/05 15:03:19;;;;;;;68.70;36.30;;;;;;;;;;6274487;28;20125;-73
2024/01/05 15:06:42;;;;;;;49.42;26.67;;;;;;;;;;6264839;28;20103;-75
2024/01/05 15:10:06;;;;;;;68.85;40.17;;;;;;;;;;6277220;28;20040;-74
2024/01/05 15:13:28;;;;;;;35.72;24.88;;;;;;;;;;6277286;28;20110;-73
2024/01/05 15:16:50;;;;;;;52.78;28.80;;;;;;;;;;6293412;28;20067;-73
2024/01/05 15:20:13;;;;;;;50.78;30.33;;;;;;;;;;6282477;28;20040;-72
2024/01/05 15:23:35;;;;;;;48.55;28.98;;;;;;;;;;6273073;28;20044;-72
2024/01/05 15:26:59;;;;;;;39.15;23.95;;;;;;;;;;6271781;28;20128;-73
2024/01/05 15:30:21;;;;;;;29.70;16.67;;;;;;;;;;6280183;28;20055;-73
2024/01/05 15:33:44;;;;;;;27.67;14.95;;;;;;;;;;6266521;28;20159;-73
2024/01/05 15:37:06;;;;;;;20.63;12.30;;;;;;;;;;6281118;28;20047;-76
2024/01/05 15:40:29;;;;;;;38.17;23.33;;;;;;;;;;6294682;28;20052;-73
2024/01/05 15:43:55;;;;;;;;;;;;;;;;;;6266385;28;20051;-73
2024/01/05 15:47:19;;;;;;;27.85;14.00;;;;;;;;;;6268414;28;20453;-73
2024/01/05 15:50:41;;;;;;;28.92;20.77;;;;;;;;;;6257291;28;20059;-74
2024/01/05 15:54:04;;;;;;;23.70;14.40;;;;;;;;;;6255996;28;20049;-73
2024/01/05 15:57:27;;;;;;;22.40;13.38;;;;;;;;;;6249030;28;20060;-73
2024/01/05 16:00:49;;;;;;;26.05;18.63;;;;;;;;;;6272940;28;20131;-73
2024/01/05 16:04:12;;;;;;;42.55;28.40;;;;;;;;;;6266587;28;20479;-73
2024/01/05 16:07:34;;;;;;;30.83;19.27;;;;;;;;;;6263087;28;20116;-73
2024/01/05 16:10:57;;;;;;;30.65;18.95;;;;;;;;;;6251209;28;20052;-73
2024/01/05 16:14:22;;;;;;;28.33;17.92;;;;;;;;;;6267427;28;20045;-72
2024/01/05 16:17:45;;;;;;;24.05;18.05;;;;;;;;;;6271883;28;20052;-72
2024/01/05 16:21:07;;;;;;;25.95;18.05;;;;;;;;;;6273111;28;20801;-72
2024/01/05 16:24:29;;;;;;;23.90;17.55;;;;;;;;;;6266757;28;20547;-73
2024/01/05 16:27:52;;;;;;;35.63;23.50;;;;;;;;;;6274289;28;20044;-73
2024/01/05 16:31:14;;;;;;;31.83;22.40;;;;;;;;;;6263642;28;20049;-73
2024/01/05 16:34:37;;;;;;;29.13;18.52;;;;;;;;;;6272660;28;20059;-72
2024/01/05 16:37:59;;;;;;;27.38;15.27;;;;;;;;;;6255064;28;20647;-72
2024/01/05 16:41:23;;;;;;;25.98;14.98;;;;;;;;;;6265449;28;20537;-73
2024/01/05 16:44:46;;;;;;;26.75;16.30;;;;;;;;;;6259258;28;20048;-73
2024/01/05 16:48:09;;;;;;;23.45;12.80;;;;;;;;;;6280991;28;20621;-73
2024/01/05 16:51:31;;;;;;;24.52;17.98;;;;;;;;;;6254484;28;20052;-74
2024/01/05 16:54:53;;;;;;;28.27;18.48;;;;;;;;;;6274518;28;20055;-73
2024/01/05 16:58:15;;;;;;;42.95;25.65;;;;;;;;;;6250078;28;20049;-73
2024/01/05 17:01:37;;;;;;;60.65;32.38;;;;;;;;;;6284425;28;20114;-73
2024/01/05 17:04:59;;;;;;;65.90;35.53;;;;;;;;;;6270194;28;20052;-73
2024/01/05 17:08:21;;;;;;;49.00;30.30;;;;;;;;;;6239872;28;20641;-73
2024/01/05 17:11:43;;;;;;;34.80;26.80;;;;;;;;;;6253603;28;20051;-73
2024/01/05 17:15:08;;;;;;;41.42;28.88;;;;;;;;;;6274776;28;20047;-73
2024/01/05 17:18:30;;;;;;;32.15;23.58;;;;;;;;;;6278574;28;20047;-74
2024/01/05 17:21:52;;;;;;;36.40;24.15;;;;;;;;;;6309207;28;20122;-74
2024/01/05 17:25:15;;;;;;;25.60;18.40;;;;;;;;;;6254529;28;20912;-73
2024/01/05 17:28:37;;;;;;;23.48;16.30;;;;;;;;;;6272331;28;20588;-73
2024/01/05 17:32:00;;;;;;;20.20;12.95;;;;;;;;;;6263413;28;20056;-73
2024/01/05 17:35:22;;;;;;;15.80;9.45;;;;;;;;;;6259598;28;20053;-73
2024/01/05 17:38:44;;;;;;;21.02;15.95;;;;;;;;;;6256586;28;20134;-74
2024/01/05 17:42:08;;;;;;;10.57;6.82;;;;;;;;;;6252094;28;20064;-74
2024/01/05 17:45:30;;;;;;;17.98;10.27;;;;;;;;;;6273535;28;20052;-74
2024/01/05 17:48:52;;;;;;;20.48;14.05;;;;;;;;;;6256969;28;20057;-74
2024/01/05 17:52:16;;;;;;;17.45;12.73;;;;;;;;;;6275717;28;20095;-73
2024/01/05 17:55:38;;;;;;;24.90;14.95;;;;;;;;;;6292186;28;20554;-74
2024/01/05 17:59:02;;;;;;;23.33;13.93;;;;;;;;;;6304836;28;20045;-74
2024/01/05 18:02:05;;;;;;;28.13;17.58;;;;;;;;;;6292446;28;20040;-74
2024/01/05 18:05:07;;;;;;;41.03;24.70;;;;;;;;;;6264101;28;20048;-73
2024/01/05 18:08:09;;;;;;;48.97;30.02;;;;;;;;;;6269015;28;20087;-74
2024/01/05 18:11:23;;;;;;;58.38;33.28;;;;;;;;;;6266509;28;20048;-73
2024/01/05 18:14:25;;;;;;;53.38;29.77;;;;;;;;;;6302349;28;20033;-73
2024/01/05 18:17:28;;;;;;;41.97;27.40;;;;;;;;;;6279887;28;20056;-73
2024/01/05 18:20:30;;;;;;;30.27;20.55;;;;;;;;;;6280771;28;20451;-73
2024/01/05 18:23:32;;;;;;;22.58;12.57;;;;;;;;;;6269547;28;20529;-74
2024/01/05 18:26:35;;;;;;;17.05;10.27;;;;;;;;;;6270234;28;20132;-74
2024/01/05 18:29:38;;;;;;;16.40;10.38;;;;;;;;;;6266647;28;20044;-73
2024/01/05 18:32:40;;;;;;;32.53;19.38;;;;;;;;;;6249120;28;20041;-73
2024/01/05 18:35:54;;;;;;;44.00;24.38;;;;;;;;;;6276115;28;20820;-73
2024/01/05 18:38:57;;;;;;;55.75;31.77;;;;;;;;;;6297395;28;20608;-73
2024/01/05 18:41:59;;;;;;;32.45;17.33;;;;;;;;;;6271462;28;20045;-73
2024/01/05 18:45:01;;;;;;;33.63;18.17;;;;;;;;;;6268117;28;20166;-73
2024/01/05 18:48:05;;;;;;;40.25;22.70;;;;;;;;;;6258254;28;20550;-73